sensor_id;sensor_type;location;lat;lon;timestamp;pressure;altitude;pressure_sealevel;temperature;humidity
52653;BME280;39353;42.864;12.014;2023-03-31T00:01:37;97893.77;;;22.98;47.28
52653;BME280;39353;42.864;12.014;2023-03-31T00:04:23;97886.63;;;22.97;47.24
52653;BME280;39353;42.864;12.014;2023-03-31T00:06:51;97880.19;;;22.96;47.37
52653;BME280;39353;42.864;12.014;2023-03-31T00:09:34;97882.06;;;22.95;47.33
52653;BME280;39353;42.864;12.014;2023-03-31T00:12:01;97880.05;;;22.94;47.40
52653;BME280;39353;42.864;12.014;2023-03-31T00:14:28;97875.27;;;22.93;47.33
52653;BME280;39353;42.864;12.014;2023-03-31T00:17:10;97868.33;;;22.90;47.27
52653;BME280;39353;42.864;12.014;2023-03-31T00:19:38;97865.67;;;22.89;47.37
52653;BME280;39353;42.864;12.014;2023-03-31T00:22:08;97866.01;;;22.89;47.51
52653;BME280;39353;42.864;12.014;2023-03-31T00:24:50;97861.71;;;22.88;47.34
52653;BME280;39353;42.864;12.014;2023-03-31T00:27:17;97861.58;;;22.86;47.37
52653;BME280;39353;42.864;12.014;2023-03-31T00:29:58;97866.08;;;22.85;47.44
52653;BME280;39353;42.864;12.014;2023-03-31T00:32:25;97859.92;;;22.83;47.54
52653;BME280;39353;42.864;12.014;2023-03-31T00:34:52;97864.40;;;22.81;47.55
52653;BME280;39353;42.864;12.014;2023-03-31T00:37:33;97868.36;;;22.80;47.59
52653;BME280;39353;42.864;12.014;2023-03-31T00:40:03;97866.90;;;22.79;47.61
52653;BME280;39353;42.864;12.014;2023-03-31T00:42:47;97871.38;;;22.79;47.67
52653;BME280;39353;42.864;12.014;2023-03-31T00:47:51;97882.28;;;22.75;47.78
52653;BME280;39353;42.864;12.014;2023-03-31T00:50:40;97874.30;;;22.73;47.79
52653;BME280;39353;42.864;12.014;2023-03-31T00:53:16;97869.73;;;22.72;47.76
52653;BME280;39353;42.864;12.014;2023-03-31T00:56:06;97867.20;;;22.72;47.84
52653;BME280;39353;42.864;12.014;2023-03-31T00:58:35;97866.64;;;22.70;47.88
52653;BME280;39353;42.864;12.014;2023-03-31T01:01:23;97860.94;;;22.69;47.80
52653;BME280;39353;42.864;12.014;2023-03-31T01:03:52;97851.73;;;22.68;47.86
52653;BME280;39353;42.864;12.014;2023-03-31T01:06:19;97843.02;;;22.67;47.90
52653;BME280;39353;42.864;12.014;2023-03-31T01:09:01;97838.94;;;22.65;48.08
52653;BME280;39353;42.864;12.014;2023-03-31T01:11:47;97820.65;;;22.64;48.04
52653;BME280;39353;42.864;12.014;2023-03-31T01:14:30;97808.23;;;22.61;48.02
52653;BME280;39353;42.864;12.014;2023-03-31T01:17:12;97798.15;;;22.59;47.97
52653;BME280;39353;42.864;12.014;2023-03-31T01:23:09;97793.02;;;22.56;48.08
52653;BME280;39353;42.864;12.014;2023-03-31T01:29:01;97772.81;;;22.53;48.26
52653;BME280;39353;42.864;12.014;2023-03-31T01:43:22;97731.45;;;22.48;48.22
52653;BME280;39353;42.864;12.014;2023-03-31T01:46:27;97737.60;;;22.47;48.21
52653;BME280;39353;42.864;12.014;2023-03-31T01:51:59;97747.13;;;22.45;48.31
52653;BME280;39353;42.864;12.014;2023-03-31T01:57:26;97743.33;;;22.44;48.42
52653;BME280;39353;42.864;12.014;2023-03-31T02:00:13;97738.44;;;22.44;48.38
52653;BME280;39353;42.864;12.014;2023-03-31T02:03:14;97728.64;;;22.44;48.33
52653;BME280;39353;42.864;12.014;2023-03-31T02:05:50;97715.65;;;22.43;48.37
52653;BME280;39353;42.864;12.014;2023-03-31T02:08:28;97719.16;;;22.42;48.46
52653;BME280;39353;42.864;12.014;2023-03-31T02:11:13;97724.05;;;22.41;48.29
52653;BME280;39353;42.864;12.014;2023-03-31T02:13:55;97726.93;;;22.40;48.32
52653;BME280;39353;42.864;12.014;2023-03-31T02:16:33;97732.79;;;22.39;48.37
52653;BME280;39353;42.864;12.014;2023-03-31T02:19:06;97728.89;;;22.38;48.42
52653;BME280;39353;42.864;12.014;2023-03-31T02:21:51;97725.85;;;22.37;48.53
52653;BME280;39353;42.864;12.014;2023-03-31T02:24:38;97717.37;;;22.36;48.44
52653;BME280;39353;42.864;12.014;2023-03-31T02:27:20;97705.81;;;22.35;48.52
52653;BME280;39353;42.864;12.014;2023-03-31T02:29:50;97707.20;;;22.35;48.61
52653;BME280;39353;42.864;12.014;2023-03-31T02:35:00;97690.16;;;22.33;48.55
52653;BME280;39353;42.864;12.014;2023-03-31T02:37:29;97686.79;;;22.32;48.58
52653;BME280;39353;42.864;12.014;2023-03-31T02:40:04;97686.22;;;22.32;48.56
52653;BME280;39353;42.864;12.014;2023-03-31T02:42:37;97676.00;;;22.31;48.58
52653;BME280;39353;42.864;12.014;2023-03-31T02:45:33;97676.71;;;22.31;48.58
52653;BME280;39353;42.864;12.014;2023-03-31T02:48:25;97680.05;;;22.30;48.66
52653;BME280;39353;42.864;12.014;2023-03-31T02:56:59;97670.13;;;22.27;48.67
52653;BME280;39353;42.864;12.014;2023-03-31T03:04:56;97658.83;;;22.23;48.72
52653;BME280;39353;42.864;12.014;2023-03-31T03:13:23;97644.45;;;22.20;48.72
52653;BME280;39353;42.864;12.014;2023-03-31T03:16:31;97634.02;;;22.20;48.71
52653;BME280;39353;42.864;12.014;2023-03-31T03:19:03;97634.55;;;22.18;48.78
52653;BME280;39353;42.864;12.014;2023-03-31T03:21:46;97642.61;;;22.17;48.77
52653;BME280;39353;42.864;12.014;2023-03-31T03:24:15;97644.86;;;22.17;48.74
52653;BME280;39353;42.864;12.014;2023-03-31T03:26:57;97631.20;;;22.16;48.89
52653;BME280;39353;42.864;12.014;2023-03-31T03:29:38;97627.15;;;22.14;48.84
52653;BME280;39353;42.864;12.014;2023-03-31T03:32:19;97624.97;;;22.14;48.83
52653;BME280;39353;42.864;12.014;2023-03-31T03:34:46;97623.71;;;22.14;48.80
52653;BME280;39353;42.864;12.014;2023-03-31T03:37:16;97621.48;;;22.14;48.81
52653;BME280;39353;42.864;12.014;2023-03-31T03:39:57;97619.90;;;22.12;48.92
52653;BME280;39353;42.864;12.014;2023-03-31T03:42:26;97623.71;;;22.11;48.92
52653;BME280;39353;42.864;12.014;2023-03-31T03:45:08;97635.16;;;22.11;48.86
52653;BME280;39353;42.864;12.014;2023-03-31T03:47:49;97640.46;;;22.10;48.85
52653;BME280;39353;42.864;12.014;2023-03-31T03:50:35;97647.98;;;22.10;49.00
52653;BME280;39353;42.864;12.014;2023-03-31T03:53:02;97658.69;;;22.09;48.92
52653;BME280;39353;42.864;12.014;2023-03-31T03:55:43;97652.59;;;22.08;49.03
52653;BME280;39353;42.864;12.014;2023-03-31T03:58:24;97650.98;;;22.07;49.01
52653;BME280;39353;42.864;12.014;2023-03-31T04:00:51;97658.96;;;22.07;49.08
52653;BME280;39353;42.864;12.014;2023-03-31T04:03:32;97674.09;;;22.07;49.08
52653;BME280;39353;42.864;12.014;2023-03-31T04:05:59;97685.49;;;22.07;49.06
52653;BME280;39353;42.864;12.014;2023-03-31T04:08:40;97691.26;;;22.06;48.95
52653;BME280;39353;42.864;12.014;2023-03-31T04:11:21;97691.64;;;22.06;48.95
52653;BME280;39353;42.864;12.014;2023-03-31T04:14:03;97690.23;;;22.06;49.00
52653;BME280;39353;42.864;12.014;2023-03-31T04:16:44;97682.05;;;22.07;49.01
52653;BME280;39353;42.864;12.014;2023-03-31T04:19:26;97679.37;;;22.06;49.15
52653;BME280;39353;42.864;12.014;2023-03-31T04:22:07;97680.77;;;22.05;49.13
52653;BME280;39353;42.864;12.014;2023-03-31T04:24:37;97676.59;;;22.05;48.95
52653;BME280;39353;42.864;12.014;2023-03-31T04:27:18;97676.63;;;22.06;49.05
52653;BME280;39353;42.864;12.014;2023-03-31T04:29:48;97671.63;;;22.07;49.04
52653;BME280;39353;42.864;12.014;2023-03-31T04:32:34;97661.55;;;22.06;49.08
52653;BME280;39353;42.864;12.014;2023-03-31T04:35:16;97648.00;;;22.06;49.04
52653;BME280;39353;42.864;12.014;2023-03-31T04:37:59;97638.42;;;22.06;49.10
52653;BME280;39353;42.864;12.014;2023-03-31T04:40:26;97628.84;;;22.05;49.05
52653;BME280;39353;42.864;12.014;2023-03-31T04:42:53;97613.89;;;22.04;48.98
52653;BME280;39353;42.864;12.014;2023-03-31T04:45:20;97615.10;;;22.05;48.86
52653;BME280;39353;42.864;12.014;2023-03-31T04:47:47;97613.64;;;22.05;48.96
52653;BME280;39353;42.864;12.014;2023-03-31T04:50:28;97622.05;;;22.04;48.98
52653;BME280;39353;42.864;12.014;2023-03-31T04:52:56;97626.01;;;22.03;48.95
52653;BME280;39353;42.864;12.014;2023-03-31T04:55:37;97623.12;;;22.02;48.97
52653;BME280;39353;42.864;12.014;2023-03-31T04:58:04;97623.43;;;22.01;49.00
52653;BME280;39353;42.864;12.014;2023-03-31T05:00:45;97622.85;;;22.00;49.05
52653;BME280;39353;42.864;12.014;2023-03-31T05:03:13;97628.49;;;21.99;49.05
52653;BME280;39353;42.864;12.014;2023-03-31T05:05:40;97629.95;;;21.98;49.04
52653;BME280;39353;42.864;12.014;2023-03-31T05:08:07;97632.11;;;21.97;49.09
52653;BME280;39353;42.864;12.014;2023-03-31T05:10:35;97633.51;;;21.96;49.25
52653;BME280;39353;42.864;12.014;2023-03-31T05:13:02;97628.27;;;21.95;49.03
52653;BME280;39353;42.864;12.014;2023-03-31T05:15:30;97630.20;;;21.94;49.19
52653;BME280;39353;42.864;12.014;2023-03-31T05:17:57;97630.02;;;21.95;49.02
52653;BME280;39353;42.864;12.014;2023-03-31T05:20:39;97618.85;;;21.94;49.05
52653;BME280;39353;42.864;12.014;2023-03-31T05:23:07;97614.53;;;21.94;49.07
52653;BME280;39353;42.864;12.014;2023-03-31T05:25:34;97605.70;;;21.93;49.11
52653;BME280;39353;42.864;12.014;2023-03-31T05:28:03;97613.39;;;21.92;49.01
52653;BME280;39353;42.864;12.014;2023-03-31T05:30:44;97609.98;;;21.91;48.97
52653;BME280;39353;42.864;12.014;2023-03-31T05:33:25;97605.95;;;21.90;49.05
52653;BME280;39353;42.864;12.014;2023-03-31T05:36:14;97606.10;;;21.89;49.06
52653;BME280;39353;42.864;12.014;2023-03-31T05:38:56;97616.40;;;21.88;49.00
52653;BME280;39353;42.864;12.014;2023-03-31T05:41:37;97622.48;;;21.86;49.15
52653;BME280;39353;42.864;12.014;2023-03-31T05:44:19;97629.45;;;21.86;49.10
52653;BME280;39353;42.864;12.014;2023-03-31T05:47:00;97628.33;;;21.85;49.15
52653;BME280;39353;42.864;12.014;2023-03-31T05:49:29;97627.06;;;21.84;49.21
52653;BME280;39353;42.864;12.014;2023-03-31T05:51:56;97623.55;;;21.83;49.45
52653;BME280;39353;42.864;12.014;2023-03-31T05:54:23;97613.67;;;21.82;49.33
52653;BME280;39353;42.864;12.014;2023-03-31T05:56:52;97609.28;;;21.81;49.18
52653;BME280;39353;42.864;12.014;2023-03-31T05:59:19;97602.85;;;21.81;49.29
52653;BME280;39353;42.864;12.014;2023-03-31T06:02:01;97600.08;;;21.81;49.36
52653;BME280;39353;42.864;12.014;2023-03-31T06:04:42;97599.91;;;21.81;49.36
52653;BME280;39353;42.864;12.014;2023-03-31T06:07:10;97599.54;;;21.80;49.36
52653;BME280;39353;42.864;12.014;2023-03-31T06:09:51;97602.87;;;21.79;49.07
52653;BME280;39353;42.864;12.014;2023-03-31T06:12:32;97599.56;;;21.78;49.01
52653;BME280;39353;42.864;12.014;2023-03-31T06:15:15;97586.12;;;21.78;49.28
52653;BME280;39353;42.864;12.014;2023-03-31T06:17:42;97586.23;;;21.78;49.24
52653;BME280;39353;42.864;12.014;2023-03-31T06:20:11;97593.13;;;21.78;49.14
52653;BME280;39353;42.864;12.014;2023-03-31T06:22:38;97598.45;;;21.79;49.10
52653;BME280;39353;42.864;12.014;2023-03-31T06:25:06;97599.33;;;21.80;48.99
52653;BME280;39353;42.864;12.014;2023-03-31T06:28:02;97597.05;;;21.80;49.28
52653;BME280;39353;42.864;12.014;2023-03-31T06:30:44;97601.51;;;21.81;49.96
52653;BME280;39353;42.864;12.014;2023-03-31T06:33:12;97594.02;;;21.81;49.80
52653;BME280;39353;42.864;12.014;2023-03-31T06:35:40;97595.52;;;21.79;49.00
52653;BME280;39353;42.864;12.014;2023-03-31T06:38:21;97593.35;;;21.55;44.79
52653;BME280;39353;42.864;12.014;2023-03-31T06:40:49;97601.08;;;21.40;45.97
52653;BME280;39353;42.864;12.014;2023-03-31T06:43:17;97603.34;;;21.41;47.50
52653;BME280;39353;42.864;12.014;2023-03-31T06:45:58;97592.89;;;21.46;47.90
52653;BME280;39353;42.864;12.014;2023-03-31T06:48:41;97588.14;;;21.51;48.16
52653;BME280;39353;42.864;12.014;2023-03-31T06:51:22;97594.43;;;21.55;48.42
52653;BME280;39353;42.864;12.014;2023-03-31T06:54:03;97594.55;;;21.57;48.13
52653;BME280;39353;42.864;12.014;2023-03-31T06:56:44;97587.95;;;21.56;47.25
52653;BME280;39353;42.864;12.014;2023-03-31T06:59:12;97580.92;;;21.50;46.90
52653;BME280;39353;42.864;12.014;2023-03-31T07:01:56;97568.69;;;21.37;45.52
52653;BME280;39353;42.864;12.014;2023-03-31T07:04:23;97566.45;;;21.33;46.39
52653;BME280;39353;42.864;12.014;2023-03-31T07:07:04;97560.47;;;21.36;47.22
52653;BME280;39353;42.864;12.014;2023-03-31T07:09:31;97549.87;;;21.41;48.04
52653;BME280;39353;42.864;12.014;2023-03-31T07:12:12;97533.20;;;21.45;48.22
52653;BME280;39353;42.864;12.014;2023-03-31T07:14:41;97530.66;;;21.50;48.11
52653;BME280;39353;42.864;12.014;2023-03-31T07:17:09;97533.96;;;21.55;48.31
52653;BME280;39353;42.864;12.014;2023-03-31T07:19:52;97544.10;;;21.59;48.32
52653;BME280;39353;42.864;12.014;2023-03-31T07:22:33;97541.70;;;21.62;48.33
52653;BME280;39353;42.864;12.014;2023-03-31T07:25:16;97549.94;;;21.65;48.26
52653;BME280;39353;42.864;12.014;2023-03-31T07:27:57;97547.77;;;21.68;48.41
52653;BME280;39353;42.864;12.014;2023-03-31T07:30:40;97547.55;;;21.69;48.58
52653;BME280;39353;42.864;12.014;2023-03-31T07:33:22;97546.10;;;21.70;48.56
52653;BME280;39353;42.864;12.014;2023-03-31T07:35:50;97539.09;;;21.72;48.45
52653;BME280;39353;42.864;12.014;2023-03-31T07:38:33;97537.14;;;21.74;48.55
52653;BME280;39353;42.864;12.014;2023-03-31T07:41:01;97541.58;;;21.75;48.60
52653;BME280;39353;42.864;12.014;2023-03-31T07:43:28;97543.34;;;21.75;49.07
52653;BME280;39353;42.864;12.014;2023-03-31T07:46:21;97536.77;;;21.77;48.99
52653;BME280;39353;42.864;12.014;2023-03-31T07:49:03;97536.55;;;21.77;48.49
52653;BME280;39353;42.864;12.014;2023-03-31T07:51:31;97535.38;;;21.76;48.24
52653;BME280;39353;42.864;12.014;2023-03-31T07:53:59;97536.86;;;21.76;48.48
52653;BME280;39353;42.864;12.014;2023-03-31T07:56:27;97534.67;;;21.76;48.52
52653;BME280;39353;42.864;12.014;2023-03-31T07:59:07;97536.95;;;21.75;48.60
52653;BME280;39353;42.864;12.014;2023-03-31T08:01:35;97527.84;;;21.74;48.66
52653;BME280;39353;42.864;12.014;2023-03-31T08:04:04;97526.69;;;21.73;48.78
52653;BME280;39353;42.864;12.014;2023-03-31T08:06:32;97526.70;;;21.74;48.62
52653;BME280;39353;42.864;12.014;2023-03-31T08:09:00;97531.39;;;21.74;48.70
52653;BME280;39353;42.864;12.014;2023-03-31T08:11:41;97534.32;;;21.73;48.62
52653;BME280;39353;42.864;12.014;2023-03-31T08:14:09;97542.98;;;21.74;48.75
52653;BME280;39353;42.864;12.014;2023-03-31T08:16:50;97527.46;;;21.74;48.82
52653;BME280;39353;42.864;12.014;2023-03-31T08:19:33;97512.59;;;21.75;48.76
52653;BME280;39353;42.864;12.014;2023-03-31T08:22:01;97511.99;;;21.76;48.81
52653;BME280;39353;42.864;12.014;2023-03-31T08:24:29;97513.82;;;21.77;48.99
52653;BME280;39353;42.864;12.014;2023-03-31T08:26:57;97508.73;;;21.78;48.96
52653;BME280;39353;42.864;12.014;2023-03-31T08:29:25;97506.38;;;21.78;49.09
52653;BME280;39353;42.864;12.014;2023-03-31T08:32:06;97497.40;;;21.77;49.10
52653;BME280;39353;42.864;12.014;2023-03-31T08:34:33;97496.09;;;21.77;49.40
52653;BME280;39353;42.864;12.014;2023-03-31T08:37:00;97488.02;;;21.78;49.54
52653;BME280;39353;42.864;12.014;2023-03-31T08:39:28;97495.29;;;21.78;49.37
52653;BME280;39353;42.864;12.014;2023-03-31T08:42:04;97484.52;;;21.78;49.67
52653;BME280;39353;42.864;12.014;2023-03-31T08:44:41;97471.06;;;21.79;50.16
52653;BME280;39353;42.864;12.014;2023-03-31T08:47:21;97478.55;;;21.81;49.99
52653;BME280;39353;42.864;12.014;2023-03-31T08:50:14;97485.41;;;21.84;50.58
52653;BME280;39353;42.864;12.014;2023-03-31T08:53:06;97480.98;;;21.87;50.64
52653;BME280;39353;42.864;12.014;2023-03-31T08:55:51;97470.72;;;21.87;50.69
52653;BME280;39353;42.864;12.014;2023-03-31T08:58:40;97461.99;;;21.86;50.26
52653;BME280;39353;42.864;12.014;2023-03-31T09:12:10;97475.91;;;21.89;49.98
52653;BME280;39353;42.864;12.014;2023-03-31T09:14:59;97476.27;;;21.90;49.79
52653;BME280;39353;42.864;12.014;2023-03-31T09:17:31;97448.95;;;21.93;49.94
52653;BME280;39353;42.864;12.014;2023-03-31T09:20:33;97439.40;;;21.97;49.74
52653;BME280;39353;42.864;12.014;2023-03-31T09:25:57;97438.80;;;21.99;49.96
52653;BME280;39353;42.864;12.014;2023-03-31T09:28:38;97455.48;;;21.98;49.85
52653;BME280;39353;42.864;12.014;2023-03-31T09:31:21;97476.77;;;21.96;49.83
52653;BME280;39353;42.864;12.014;2023-03-31T09:34:13;97476.30;;;21.94;49.69
52653;BME280;39353;42.864;12.014;2023-03-31T09:36:42;97472.53;;;21.92;49.71
52653;BME280;39353;42.864;12.014;2023-03-31T09:39:23;97464.30;;;21.90;49.68
52653;BME280;39353;42.864;12.014;2023-03-31T09:41:52;97474.27;;;21.87;49.67
52653;BME280;39353;42.864;12.014;2023-03-31T09:44:42;97459.22;;;21.86;49.73
52653;BME280;39353;42.864;12.014;2023-03-31T09:47:37;97432.09;;;21.84;49.80
52653;BME280;39353;42.864;12.014;2023-03-31T09:50:22;97398.88;;;21.82;49.77
52653;BME280;39353;42.864;12.014;2023-03-31T09:53:17;97399.15;;;21.80;49.87
52653;BME280;39353;42.864;12.014;2023-03-31T09:56:04;97405.73;;;21.79;49.80
52653;BME280;39353;42.864;12.014;2023-03-31T09:58:47;97398.66;;;21.77;49.73
52653;BME280;39353;42.864;12.014;2023-03-31T10:01:29;97397.50;;;21.75;49.77
52653;BME280;39353;42.864;12.014;2023-03-31T10:03:57;97402.89;;;21.75;49.77
52653;BME280;39353;42.864;12.014;2023-03-31T10:06:24;97400.04;;;21.74;49.80
52653;BME280;39353;42.864;12.014;2023-03-31T10:08:56;97389.73;;;21.72;49.79
52653;BME280;39353;42.864;12.014;2023-03-31T10:12:35;97403.95;;;21.71;49.76
52653;BME280;39353;42.864;12.014;2023-03-31T10:14:53;97413.88;;;21.71;49.87
52653;BME280;39353;42.864;12.014;2023-03-31T10:17:43;97410.37;;;21.70;49.82
52653;BME280;39353;42.864;12.014;2023-03-31T10:20:36;97410.98;;;21.68;49.85
52653;BME280;39353;42.864;12.014;2023-03-31T10:23:44;97410.43;;;21.68;49.96
52653;BME280;39353;42.864;12.014;2023-03-31T10:26:20;97406.91;;;21.67;49.96
52653;BME280;39353;42.864;12.014;2023-03-31T10:29:11;97399.79;;;21.66;50.08
52653;BME280;39353;42.864;12.014;2023-03-31T10:31:39;97392.02;;;21.66;49.95
52653;BME280;39353;42.864;12.014;2023-03-31T10:34:23;97378.65;;;21.64;49.94
52653;BME280;39353;42.864;12.014;2023-03-31T10:37:06;97365.14;;;21.63;49.80
52653;BME280;39353;42.864;12.014;2023-03-31T10:39:36;97350.02;;;21.62;49.98
52653;BME280;39353;42.864;12.014;2023-03-31T10:42:06;97351.22;;;21.61;49.93
52653;BME280;39353;42.864;12.014;2023-03-31T10:44:38;97343.35;;;21.60;50.01
52653;BME280;39353;42.864;12.014;2023-03-31T10:47:19;97333.62;;;21.59;49.90
52653;BME280;39353;42.864;12.014;2023-03-31T10:50:13;97331.15;;;21.59;49.91
52653;BME280;39353;42.864;12.014;2023-03-31T10:52:46;97328.90;;;21.58;49.99
52653;BME280;39353;42.864;12.014;2023-03-31T10:55:35;97334.46;;;21.57;49.89
52653;BME280;39353;42.864;12.014;2023-03-31T10:58:29;97343.29;;;21.57;50.07
52653;BME280;39353;42.864;12.014;2023-03-31T11:42:57;97290.25;;;21.48;50.05
52653;BME280;39353;42.864;12.014;2023-03-31T11:45:42;97280.14;;;21.47;49.86
52653;BME280;39353;42.864;12.014;2023-03-31T11:48:21;97275.45;;;21.47;49.87
52653;BME280;39353;42.864;12.014;2023-03-31T11:50:57;97262.01;;;21.47;49.85
52653;BME280;39353;42.864;12.014;2023-03-31T11:53:43;97266.63;;;21.46;49.82
52653;BME280;39353;42.864;12.014;2023-03-31T11:56:13;97266.47;;;21.46;50.00
52653;BME280;39353;42.864;12.014;2023-03-31T11:58:51;97265.55;;;21.46;50.10
52653;BME280;39353;42.864;12.014;2023-03-31T12:04:36;97255.38;;;21.46;49.94
52653;BME280;39353;42.864;12.014;2023-03-31T12:07:28;97240.69;;;21.46;50.06
52653;BME280;39353;42.864;12.014;2023-03-31T12:10:28;97229.87;;;21.45;50.10
52653;BME280;39353;42.864;12.014;2023-03-31T12:13:17;97212.33;;;21.44;49.91
52653;BME280;39353;42.864;12.014;2023-03-31T12:16:10;97213.64;;;21.44;50.04
52653;BME280;39353;42.864;12.014;2023-03-31T12:19:22;97215.70;;;21.44;50.04
52653;BME280;39353;42.864;12.014;2023-03-31T12:22:17;97214.23;;;21.44;49.93
52653;BME280;39353;42.864;12.014;2023-03-31T12:24:43;97206.82;;;21.43;49.97
52653;BME280;39353;42.864;12.014;2023-03-31T12:27:38;97202.05;;;21.44;49.93
52653;BME280;39353;42.864;12.014;2023-03-31T12:30:14;97191.86;;;21.44;49.97
52653;BME280;39353;42.864;12.014;2023-03-31T12:56:21;97157.02;;;21.41;49.96
52653;BME280;39353;42.864;12.014;2023-03-31T12:58:51;97154.33;;;21.41;50.02
52653;BME280;39353;42.864;12.014;2023-03-31T13:01:23;97152.27;;;21.41;49.99
52653;BME280;39353;42.864;12.014;2023-03-31T13:04:08;97141.07;;;21.40;49.86
52653;BME280;39353;42.864;12.014;2023-03-31T13:06:57;97134.72;;;21.40;49.90
52653;BME280;39353;42.864;12.014;2023-03-31T13:09:46;97135.67;;;21.41;49.97
52653;BME280;39353;42.864;12.014;2023-03-31T13:12:17;97130.14;;;21.40;49.87
52653;BME280;39353;42.864;12.014;2023-03-31T13:15:03;97123.02;;;21.39;50.05
52653;BME280;39353;42.864;12.014;2023-03-31T13:18:00;97121.58;;;21.41;49.95
52653;BME280;39353;42.864;12.014;2023-03-31T13:20:43;97111.92;;;21.41;49.84
52653;BME280;39353;42.864;12.014;2023-03-31T13:23:32;97104.61;;;21.41;49.87
52653;BME280;39353;42.864;12.014;2023-03-31T13:26:01;97096.52;;;21.40;49.66
52653;BME280;39353;42.864;12.014;2023-03-31T13:28:42;97088.92;;;21.37;49.24
52653;BME280;39353;42.864;12.014;2023-03-31T13:34:34;97055.58;;;21.38;49.63
52653;BME280;39353;42.864;12.014;2023-03-31T13:37:20;97052.45;;;21.39;49.77
52653;BME280;39353;42.864;12.014;2023-03-31T13:52:10;97043.78;;;21.40;49.84
52653;BME280;39353;42.864;12.014;2023-03-31T13:58:36;97031.30;;;21.31;47.92
52653;BME280;39353;42.864;12.014;2023-03-31T14:03:57;97010.80;;;21.31;48.67
52653;BME280;39353;42.864;12.014;2023-03-31T14:06:52;97004.42;;;21.35;48.62
52653;BME280;39353;42.864;12.014;2023-03-31T14:09:41;96999.84;;;21.35;48.70
52653;BME280;39353;42.864;12.014;2023-03-31T14:12:38;96990.56;;;21.35;48.62
52653;BME280;39353;42.864;12.014;2023-03-31T14:15:11;96981.58;;;21.33;48.70
52653;BME280;39353;42.864;12.014;2023-03-31T14:17:43;96975.29;;;21.32;48.34
52653;BME280;39353;42.864;12.014;2023-03-31T14:32:06;96977.88;;;21.30;49.21
52653;BME280;39353;42.864;12.014;2023-03-31T14:37:34;96971.47;;;21.29;49.32
52653;BME280;39353;42.864;12.014;2023-03-31T14:40:16;96976.85;;;21.28;49.33
52653;BME280;39353;42.864;12.014;2023-03-31T14:42:46;96980.73;;;21.29;49.40
52653;BME280;39353;42.864;12.014;2023-03-31T14:45:19;96975.88;;;21.31;49.40
52653;BME280;39353;42.864;12.014;2023-03-31T14:48:01;96969.52;;;21.33;49.24
52653;BME280;39353;42.864;12.014;2023-03-31T14:50:34;96966.59;;;21.39;49.49
52653;BME280;39353;42.864;12.014;2023-03-31T14:53:02;96964.88;;;21.47;49.59
52653;BME280;39353;42.864;12.014;2023-03-31T14:55:32;96961.86;;;21.54;49.89
52653;BME280;39353;42.864;12.014;2023-03-31T14:58:01;96959.91;;;21.61;49.88
52653;BME280;39353;42.864;12.014;2023-03-31T15:00:43;96959.02;;;21.68;49.87
52653;BME280;39353;42.864;12.014;2023-03-31T15:03:29;96963.59;;;21.76;49.80
52653;BME280;39353;42.864;12.014;2023-03-31T15:06:12;96959.44;;;21.85;49.71
52653;BME280;39353;42.864;12.014;2023-03-31T15:08:56;96956.94;;;21.93;49.56
52653;BME280;39353;42.864;12.014;2023-03-31T15:11:39;96963.60;;;22.01;49.50
52653;BME280;39353;42.864;12.014;2023-03-31T15:14:08;96964.30;;;22.09;49.53
52653;BME280;39353;42.864;12.014;2023-03-31T15:16:50;96965.39;;;22.17;49.19
52653;BME280;39353;42.864;12.014;2023-03-31T15:19:34;96970.73;;;22.26;49.08
52653;BME280;39353;42.864;12.014;2023-03-31T15:22:16;96975.96;;;22.34;48.88
52653;BME280;39353;42.864;12.014;2023-03-31T15:25:00;96983.04;;;22.42;48.87
52653;BME280;39353;42.864;12.014;2023-03-31T15:27:33;96983.27;;;22.49;48.73
52653;BME280;39353;42.864;12.014;2023-03-31T15:30:25;96974.06;;;22.55;48.68
52653;BME280;39353;42.864;12.014;2023-03-31T15:33:19;96964.61;;;22.62;48.47
52653;BME280;39353;42.864;12.014;2023-03-31T15:36:04;96972.09;;;22.70;48.36
52653;BME280;39353;42.864;12.014;2023-03-31T15:38:33;96969.05;;;22.75;48.17
52653;BME280;39353;42.864;12.014;2023-03-31T15:41:01;96966.09;;;22.80;48.14
52653;BME280;39353;42.864;12.014;2023-03-31T15:43:29;96953.48;;;22.84;47.96
52653;BME280;39353;42.864;12.014;2023-03-31T15:45:59;96949.73;;;22.85;47.73
52653;BME280;39353;42.864;12.014;2023-03-31T15:48:52;96941.48;;;22.87;47.61
52653;BME280;39353;42.864;12.014;2023-03-31T15:51:36;96935.45;;;22.90;47.51
52653;BME280;39353;42.864;12.014;2023-03-31T15:57:01;96931.52;;;22.95;47.46
52653;BME280;39353;42.864;12.014;2023-03-31T16:02:39;96920.63;;;23.03;48.07
52653;BME280;39353;42.864;12.014;2023-03-31T16:05:39;96915.45;;;23.09;47.87
52653;BME280;39353;42.864;12.014;2023-03-31T16:08:46;96914.54;;;23.11;46.94
52653;BME280;39353;42.864;12.014;2023-03-31T16:11:51;96907.69;;;23.10;46.53
52653;BME280;39353;42.864;12.014;2023-03-31T16:14:33;96895.26;;;23.10;45.89
52653;BME280;39353;42.864;12.014;2023-03-31T16:17:30;96878.80;;;23.10;45.90
52653;BME280;39353;42.864;12.014;2023-03-31T16:20:24;96874.42;;;23.11;46.01
52653;BME280;39353;42.864;12.014;2023-03-31T16:22:58;96875.29;;;23.15;46.26
52653;BME280;39353;42.864;12.014;2023-03-31T16:25:30;96875.47;;;23.21;46.49
52653;BME280;39353;42.864;12.014;2023-03-31T16:28:01;96879.40;;;23.28;46.82
52653;BME280;39353;42.864;12.014;2023-03-31T16:30:44;96882.03;;;23.33;46.79
52653;BME280;39353;42.864;12.014;2023-03-31T16:33:25;96876.62;;;23.39;46.84
52653;BME280;39353;42.864;12.014;2023-03-31T16:35:54;96866.55;;;23.46;46.85
52653;BME280;39353;42.864;12.014;2023-03-31T16:38:28;96867.23;;;23.53;46.97
52653;BME280;39353;42.864;12.014;2023-03-31T16:41:14;96860.33;;;23.59;47.08